Time;durP1;ratioP1;P1;durP2;ratioP2;P2;SDS_P1;SDS_P2;PMS_P1;PMS_P2;Temp;Humidity;BMP_temperature;BMP_pressure;BME280_temperature;BME280_humidity;BME280_pressure;Samples;Min_cycle;Max_cycle;Signal;HPM_P1;HPM_P2
2022/06/03 00:00:01;;;;;;;;;;;14.60;90.00;;;11.96;89.75;100938.00;6121421;23;19940;-76
2022/06/03 00:03:00;;;;;;;;;;;14.60;90.20;;;11.97;89.87;100927.94;6119987;23;20340;-76
2022/06/03 00:05:56;;;;;;;;;;;14.50;90.30;;;11.95;90.21;100941.75;6120936;23;20243;-76
2022/06/03 00:08:45;;;;;;;;;;;14.50;90.50;;;11.92;90.07;100933.94;6121268;23;20007;-76
2022/06/03 00:11:26;;;;;;;;;;;14.50;90.60;;;11.88;90.19;100943.47;6098026;23;19928;-76
2022/06/03 00:14:18;;;;;;;;;;;14.50;90.80;;;11.86;90.54;100934.63;6122843;23;19928;-76
2022/06/03 00:16:55;;;;;;;;;;;14.40;90.70;;;11.84;90.59;100929.38;6122483;23;20390;-76
2022/06/03 00:19:30;;;;;;;;;;;14.40;90.80;;;11.81;90.93;100924.28;6121627;23;19956;-77
2022/06/03 00:22:06;;;;;;;;;;;14.40;90.90;;;11.79;90.80;100920.06;6121970;23;19928;-77
2022/06/03 00:25:08;;;;;;;;;;;14.40;91.00;;;11.78;91.28;100923.78;6122117;23;19996;-76
2022/06/03 00:27:52;;;;;;;;;;;14.40;91.10;;;11.71;91.67;100923.69;6122131;23;20001;-76
2022/06/03 00:30:29;;;;;;;;;;;14.30;91.30;;;11.69;91.87;100926.59;6096340;23;19921;-76
2022/06/03 00:33:33;;;;;;;;;;;14.30;91.40;;;11.62;92.30;100928.34;6122595;23;19917;-76
2022/06/03 00:36:19;;;;;;;;;;;14.30;91.50;;;11.63;92.49;100921.00;6122402;23;19920;-76
2022/06/03 00:39:00;;;;;;;;;;;14.20;91.60;;;11.58;92.77;100921.56;6121489;23;20032;-76
2022/06/03 00:41:35;;;;;;;;;;;14.20;91.70;;;11.58;92.77;100923.44;6122527;23;19952;-77
2022/06/03 00:44:19;;;;;;;;;;;14.20;91.90;;;11.54;93.07;100922.97;6122948;23;19932;-76
2022/06/03 00:47:05;;;;;;;;;;;14.20;92.00;;;11.48;93.49;100918.19;6122600;23;20351;-76
2022/06/03 00:50:01;;;;;;;;;;;14.10;92.10;;;11.44;93.89;100916.88;6121440;23;19920;-76
2022/06/03 00:52:51;;;;;;;;;;;14.10;92.30;;;11.43;93.86;100915.19;6122213;23;19921;-76
2022/06/03 00:56:06;;;;;;;;;;;14.00;92.40;;;11.42;93.95;100911.59;6122135;23;19943;-76
2022/06/03 00:58:46;;;;;;;;;;;14.00;92.60;;;11.39;94.31;100911.13;6060454;23;19957;-76
2022/06/03 01:01:19;;;;;;;;;;;14.00;92.80;;;11.35;94.56;100906.03;6118500;23;19952;-76
2022/06/03 01:04:13;;;;;;;;;;;13.90;93.00;;;11.32;94.50;100908.28;6122704;23;19987;-76
2022/06/03 01:06:51;;;;;;;;;;;13.90;93.10;;;11.29;94.53;100900.44;6121456;23;19959;-76
2022/06/03 01:09:34;;;;;;;;;;;13.90;93.20;;;11.23;95.06;100899.31;6119461;23;19956;-76
2022/06/03 01:12:14;;;;;;;;;;;13.80;93.20;;;11.22;95.18;100903.06;6121809;23;19923;-76
2022/06/03 01:14:58;;;;;;;;;;;13.80;93.40;;;11.17;95.75;100904.63;6122771;23;20403;-76
2022/06/03 01:17:33;;;;;;;;;;;13.80;93.50;;;11.13;96.36;100904.97;6122332;23;20000;-76
2022/06/03 01:20:13;;;;;;;;;;;13.80;93.70;;;11.12;96.65;100903.28;6121604;23;19921;-76
2022/06/03 01:23:11;;;;;;;;;;;13.80;93.80;;;11.10;97.01;100896.28;6121946;23;20304;-76
2022/06/03 01:26:06;;;;;;;;;;;13.80;94.00;;;11.07;97.82;100904.84;6122228;23;19952;-77
2022/06/03 01:28:59;;;;;;;;;;;13.70;94.20;;;11.06;98.05;100897.69;6119350;23;19928;-77
2022/06/03 01:31:41;;;;;;;;;;;13.70;94.30;;;11.04;98.02;100902.47;6120890;23;20319;-76
2022/06/03 01:34:23;;;;;;;;;;;13.70;94.50;;;11.01;98.84;100902.84;6121839;23;19916;-76
2022/06/03 01:37:02;;;;;;;;;;;13.70;94.70;;;10.99;98.66;100900.28;6122593;23;20229;-76
2022/06/03 01:39:56;;;;;;;;;;;13.70;94.80;;;10.95;98.87;100891.63;6120346;23;19928;-77
2022/06/03 01:42:58;;;;;;;;;;;13.70;94.80;;;10.95;99.17;100901.69;6122558;23;19995;-76
2022/06/03 01:45:55;;;;;;;;;;;13.70;94.90;;;10.93;98.79;100893.69;6122260;23;19952;-76
2022/06/03 01:48:45;;;;;;;;;;;13.60;94.90;;;10.93;99.16;100893.69;6099084;23;19920;-76
2022/06/03 01:51:30;;;;;;;;;;;13.60;95.10;;;10.92;99.45;100891.97;6119031;23;19944;-76
2022/06/03 01:54:25;;;;;;;;;;;13.60;95.20;;;10.91;99.38;100889.44;6121801;23;19997;-76
2022/06/03 01:57:07;;;;;;;;;;;13.60;95.30;;;10.92;99.17;100891.97;6122313;23;20004;-77
2022/06/03 02:00:03;;;;;;;;;;;13.60;95.30;;;10.90;99.60;100885.84;6121156;23;19921;-76
2022/06/03 02:03:17;;;;;;;;;;;13.60;95.40;;;10.88;99.27;100885.19;6121427;23;19921;-77
2022/06/03 02:06:16;;;;;;;;;;;13.60;95.40;;;10.87;99.29;100882.63;6102728;23;19921;-76
2022/06/03 02:09:09;;;;;;;;;;;13.60;95.60;;;10.86;99.24;100887.25;6120205;23;19948;-76
2022/06/03 02:12:25;;;;;;;;;;;13.60;95.60;;;10.83;99.42;100873.13;6122207;23;19999;-76
2022/06/03 02:15:21;;;;;;;;;;;13.50;95.60;;;10.80;99.64;100871.63;6121952;23;19921;-76
2022/06/03 02:18:08;;;;;;;;;;;13.50;95.80;;;10.79;99.84;100869.06;6129512;23;19920;-74
2022/06/03 02:21:14;;;;;;;;;;;13.50;95.90;;;10.78;100.00;100870.09;6151170;23;20328;-76
2022/06/03 02:24:05;;;;;;;;;;;13.50;95.90;;;10.73;100.00;100870.63;6147474;23;19920;-76
2022/06/03 02:27:04;;;;;;;;;;;13.50;96.10;;;10.72;100.00;100868.94;6153298;23;19916;-76
2022/06/03 02:32:59;;;;;;;;;;;13.40;96.20;;;10.70;100.00;100865.53;6123282;23;19923;-76
2022/06/03 02:35:42;;;;;;;;;;;13.30;96.40;;;10.67;100.00;100863.16;6123549;23;19920;-76
2022/06/03 02:38:36;;;;;;;;;;;13.40;96.40;;;10.63;100.00;100859.94;6122377;23;19921;-76
2022/06/03 02:41:36;;;;;;;;;;;13.30;96.40;;;10.66;100.00;100872.34;6123739;23;19927;-76
2022/06/03 02:44:32;;;;;;;;;;;13.30;96.50;;;10.59;100.00;100864.06;6070297;23;19979;-76
2022/06/03 02:47:39;;;;;;;;;;;13.30;96.70;;;10.55;100.00;100860.84;6118311;23;19952;-76
2022/06/03 02:50:39;;;;;;;;;;;13.30;96.80;;;10.51;100.00;100862.22;6123114;23;19973;-75
2022/06/03 02:53:55;;;;;;;;;;;13.20;96.70;;;10.47;100.00;100854.56;6123983;23;19959;-76
2022/06/03 02:56:41;;;;;;;;;;;13.20;96.70;;;10.44;100.00;100855.78;6122906;23;19956;-76
2022/06/03 02:59:26;;;;;;;;;;;13.10;96.90;;;10.44;100.00;100860.38;6122303;23;19940;-75
2022/06/03 03:02:30;;;;;;;;;;;13.10;97.00;;;10.38;100.00;100859.19;6121394;23;20376;-76
2022/06/03 03:05:06;;;;;;;;;;;13.10;97.10;;;10.29;100.00;100854.75;6122988;23;20354;-75
2022/06/03 03:08:17;;;;;;;;;;;13.00;97.10;;;10.28;100.00;100850.34;6122770;23;20031;-76
2022/06/03 03:11:13;;;;;;;;;;;13.00;97.20;;;10.26;100.00;100842.38;6123024;23;20012;-76
2022/06/03 03:14:22;;;;;;;;;;;13.00;97.30;;;10.24;100.00;100844.38;6123357;23;19961;-76
2022/06/03 03:17:15;;;;;;;;;;;13.00;97.50;;;10.24;100.00;100854.44;6062034;23;19952;-76
2022/06/03 03:20:00;;;;;;;;;;;12.90;97.50;;;10.18;100.00;100856.84;6122293;23;19931;-76
2022/06/03 03:22:45;;;;;;;;;;;12.90;97.60;;;10.18;100.00;100856.84;6123334;23;19972;-76
2022/06/03 03:25:33;;;;;;;;;;;12.90;97.70;;;10.16;100.00;100837.09;6123051;23;19920;-76
2022/06/03 03:28:25;;;;;;;;;;;12.90;97.80;;;10.15;100.00;100840.88;6121920;23;19925;-76
2022/06/03 03:31:14;;;;;;;;;;;12.80;97.70;;;10.11;100.00;100847.69;6110346;23;20512;-75
2022/06/03 03:34:02;;;;;;;;;;;12.80;97.80;;;10.06;100.00;100836.47;6123112;23;19921;-76
2022/06/03 03:36:59;;;;;;;;;;;12.80;98.00;;;10.05;100.00;100842.94;6122522;23;19974;-76
2022/06/03 03:39:51;;;;;;;;;;;12.80;98.00;;;10.03;100.00;100842.22;6121803;23;19927;-76
2022/06/03 03:42:47;;;;;;;;;;;12.70;98.20;;;10.01;100.00;100838.00;6122992;23;19916;-75
2022/06/03 03:45:58;;;;;;;;;;;12.70;98.20;;;9.98;100.00;100840.03;6089599;23;19925;-76
2022/06/03 03:49:09;;;;;;;;;;;12.70;98.40;;;9.95;100.00;100844.97;6121491;23;19924;-76
2022/06/03 03:51:59;;;;;;;;;;;12.70;98.50;;;9.93;100.00;100844.31;6122742;23;19928;-78
2022/06/03 03:54:56;;;;;;;;;;;12.70;98.60;;;9.92;100.00;100839.91;6123053;23;19921;-78
2022/06/03 03:57:57;;;;;;;;;;;12.70;98.80;;;9.92;100.00;100845.34;6122361;23;19999;-81
2022/06/03 04:01:17;;;;;;;;;;;12.60;98.80;;;9.94;100.00;100835.97;6122712;23;19924;-81
2022/06/03 04:04:21;;;;;;;;;;;12.60;99.00;;;9.95;100.00;100834.09;6123209;23;19917;-80
2022/06/03 04:07:36;;;;;;;;;;;12.70;99.20;;;9.96;100.00;100833.09;6122459;23;19916;-81
2022/06/03 04:10:30;;;;;;;;;;;12.60;99.30;;;9.99;100.00;100840.88;6122914;23;20328;-80
2022/06/03 04:13:20;;;;;;;;;;;12.60;99.60;;;10.04;100.00;100837.66;6122867;23;19948;-81
2022/06/03 04:16:32;;;;;;;;;;;12.70;99.70;;;10.06;100.00;100841.91;6122545;23;20000;-80
2022/06/03 04:19:35;;;;;;;;;;;12.80;99.80;;;10.10;100.00;100839.69;6121705;23;19928;-80
2022/06/03 04:22:16;;;;;;;;;;;12.80;99.90;;;10.12;100.00;100832.19;6079551;23;19977;-80
2022/06/03 04:25:07;;;;;;;;;;;12.80;99.90;;;10.13;100.00;100825.75;6122553;23;20007;-81
2022/06/03 04:28:01;;;;;;;;;;;12.90;99.90;;;10.18;100.00;100826.94;6121846;23;19928;-81
2022/06/03 04:31:04;;;;;;;;;;;12.90;99.90;;;10.22;100.00;100821.97;6096388;23;19928;-80
2022/06/03 04:33:52;;;;;;;;;;;13.00;99.90;;;10.27;100.00;100818.72;6088011;23;19927;-81
2022/06/03 04:36:56;;;;;;;;;;;13.00;99.90;;;10.35;100.00;100835.03;6122655;23;20662;-81
2022/06/03 04:40:12;;;;;;;;;;;13.10;99.90;;;10.44;100.00;100827.72;6121600;23;20336;-82
2022/06/03 04:43:18;;;;;;;;;;;13.20;99.90;;;10.57;100.00;100823.41;6061379;23;20272;-80
2022/06/03 04:46:33;;;;;;;;;;;13.30;99.90;;;10.69;100.00;100825.72;6121827;23;19952;-81
2022/06/03 04:49:41;;;;;;;;;;;13.40;99.90;;;10.78;100.00;100819.22;6116287;23;19968;-80
2022/06/03 04:52:47;;;;;;;;;;;13.50;99.90;;;10.88;100.00;100822.56;6013791;23;20013;-81
2022/06/03 04:55:49;;;;;;;;;;;13.70;99.90;;;10.97;100.00;100815.19;6122217;23;19936;-81
2022/06/03 04:59:04;;;;;;;;;;;13.70;99.90;;;11.07;100.00;100812.25;6121575;23;19928;-82
2022/06/03 05:02:11;;;;;;;;;;;13.80;99.90;;;11.16;100.00;100802.97;6122273;23;20367;-81
2022/06/03 05:05:24;;;;;;;;;;;13.90;99.90;;;11.27;100.00;100807.13;6122786;23;20000;-80
2022/06/03 05:08:36;;;;;;;;;;;14.00;99.90;;;11.37;100.00;100806.91;6121434;23;20011;-80
2022/06/03 05:11:42;;;;;;;;;;;14.40;99.90;;;11.46;100.00;100811.25;6032477;23;19956;-77
2022/06/03 05:14:44;;;;;;;;;;;14.20;99.60;;;11.55;100.00;100807.44;6122501;23;19923;-78
2022/06/03 05:17:40;;;;;;;;;;;14.30;99.60;;;11.62;100.00;100805.66;6119426;23;19921;-81
2022/06/03 05:20:24;;;;;;;;;;;14.30;99.50;;;11.70;100.00;100802.84;6120227;23;19971;-81
2022/06/03 05:23:23;;;;;;;;;;;14.40;99.60;;;11.78;100.00;100804.66;6120153;23;19924;-80
2022/06/03 05:26:24;;;;;;;;;;;14.40;99.70;;;11.85;99.50;100799.31;6120289;23;19921;-79
2022/06/03 05:29:38;;;;;;;;;;;14.50;99.30;;;11.89;99.80;100803.38;6120427;23;19925;-79
2022/06/03 05:32:46;;;;;;;;;;;14.60;98.60;;;11.97;98.82;100803.31;6122628;23;19952;-79
2022/06/03 05:35:38;;;;;;;;;;;14.60;98.50;;;12.03;99.28;100797.13;6121494;23;19921;-79
2022/06/03 05:38:28;;;;;;;;;;;14.70;99.00;;;12.10;98.90;100802.66;6121504;23;20299;-79
2022/06/03 05:44:28;;;;;;;;;;;14.90;99.00;;;12.23;97.42;100793.81;6062014;23;19921;-79
2022/06/03 05:47:01;;;;;;;;;;;14.90;98.20;;;12.27;97.81;100781.50;6122293;23;20003;-79
2022/06/03 05:49:40;;;;;;;;;;;15.00;98.30;;;12.35;96.68;100783.28;6121468;23;19941;-79
2022/06/03 05:52:40;;;;;;;;;;;15.10;98.10;;;12.40;96.23;100780.81;6122309;23;20008;-79
2022/06/03 05:55:27;;;;;;;;;;;15.10;98.20;;;12.46;96.69;100786.34;6122236;23;19948;-80
2022/06/03 05:58:07;;;;;;;;;;;15.20;98.00;;;12.52;96.18;100791.03;6121371;23;20336;-80
2022/06/03 06:00:44;;;;;;;;;;;15.30;98.70;;;12.60;95.21;100786.53;6123909;23;19943;-80
2022/06/03 06:03:31;;;;;;;;;;;15.50;99.90;;;12.70;95.77;100782.47;6123853;23;19920;-79
2022/06/03 06:06:15;;;;;;;;;;;15.80;99.90;;;12.95;94.49;100789.47;6124019;23;19944;-82
2022/06/03 06:08:51;;;;;;;;;;;16.30;99.90;;;13.07;94.81;100782.44;6122546;23;19925;-83
2022/06/03 06:11:21;;;;;;;;;;;16.90;99.90;;;13.25;94.27;100774.63;6124092;23;19924;-79
2022/06/03 06:14:06;;;;;;;;;;;17.60;99.90;;;14.11;90.54;100773.63;6123797;23;20410;-79
2022/06/03 06:16:36;;;;;;;;;;;18.30;99.90;;;15.03;88.51;100766.00;6124298;23;20342;-79
2022/06/03 06:19:06;;;;;;;;;;;18.90;99.90;;;16.43;81.53;100763.19;6122596;23;20398;-79
2022/06/03 06:21:46;;;;;;;;;;;19.60;97.80;;;17.61;75.74;100755.47;6123698;23;19927;-79
2022/06/03 06:24:16;;;;;;;;;;;20.20;95.90;;;18.06;73.18;100750.59;6124158;23;20035;-79
2022/06/03 06:27:13;;;;;;;;;;;21.00;93.10;;;17.97;72.99;100761.09;6123618;23;19939;-79
2022/06/03 06:30:15;;;;;;;;;;;21.70;90.30;;;17.71;73.50;100756.66;6123180;23;19924;-83
2022/06/03 06:33:21;;;;;;;;;;;22.50;85.70;;;17.61;73.61;100760.97;6123823;23;19949;-81
2022/06/03 06:36:10;;;;;;;;;;;23.30;83.50;;;17.77;75.16;100754.91;6123506;23;19927;-80
2022/06/03 06:38:47;;;;;;;;;;;24.10;79.90;;;18.12;71.97;100754.34;6122836;23;19921;-80
2022/06/03 06:41:32;;;;;;;;;;;24.70;75.40;;;18.69;68.50;100751.34;6123185;23;19917;-80
2022/06/03 06:44:08;;;;;;;;;;;25.30;71.50;;;19.51;66.69;100754.38;6122986;23;19948;-80
2022/06/03 06:46:47;;;;;;;;;;;25.80;68.30;;;20.43;62.48;100749.31;6123600;23;19971;-80
2022/06/03 06:49:24;;;;;;;;;;;26.10;64.90;;;21.66;59.22;100748.84;6121357;23;19921;-79
2022/06/03 06:52:00;;;;;;;;;;;26.30;58.60;;;22.64;54.38;100739.97;6123221;23;20027;-80
2022/06/03 06:54:32;;;;;;;;;;;26.00;56.40;;;22.12;54.02;100741.19;6123019;23;20016;-80
2022/06/03 06:57:04;;;;;;;;;;;25.70;55.40;;;21.11;58.18;100750.38;6123486;23;19923;-80
2022/06/03 06:59:37;;;;;;;;;;;25.40;56.70;;;20.47;61.32;100742.22;6122544;23;20004;-80
2022/06/03 07:02:07;;;;;;;;;;;25.10;57.80;;;20.10;63.25;100746.13;6123298;23;20007;-80
2022/06/03 07:04:41;;;;;;;;;;;24.80;58.70;;;19.97;62.67;100745.53;6123867;23;20008;-80
2022/06/03 07:07:14;;;;;;;;;;;24.60;59.00;;;19.77;64.04;100741.22;6123088;23;19927;-80
2022/06/03 07:09:50;;;;;;;;;;;24.30;60.30;;;19.71;65.56;100742.97;6122299;23;20358;-79
2022/06/03 07:12:22;;;;;;;;;;;24.10;60.80;;;19.65;64.05;100743.13;6122688;23;20336;-80
2022/06/03 07:14:55;;;;;;;;;;;23.90;61.70;;;19.58;63.89;100756.19;6122740;23;19921;-80
2022/06/03 07:20:22;;;;;;;;;;;23.50;62.50;;;19.47;64.85;100755.91;6123358;23;20074;-80
2022/06/03 07:22:55;;;;;;;;;;;23.30;63.60;;;19.50;61.88;100751.84;6123641;23;19920;-80
2022/06/03 07:25:26;;;;;;;;;;;23.10;63.20;;;19.44;60.62;100753.66;6122564;23;19948;-80
2022/06/03 07:27:59;;;;;;;;;;;22.80;62.00;;;19.32;60.71;100752.78;6122478;23;19963;-80
2022/06/03 07:30:33;;;;;;;;;;;22.40;63.40;;;19.31;61.20;100751.09;6123226;23;20423;-80
2022/06/03 07:33:06;;;;;;;;;;;22.30;64.70;;;19.28;60.90;100754.31;6123399;23;20309;-81
2022/06/03 07:35:42;;;;;;;;;;;22.20;64.70;;;19.25;61.20;100746.53;6096448;23;19921;-81
2022/06/03 07:38:22;;;;;;;;;;;22.10;65.40;;;19.23;61.38;100752.28;6120385;23;19927;-80
2022/06/03 07:40:54;;;;;;;;;;;22.00;65.80;;;19.22;63.25;100745.06;6122879;23;19927;-80
2022/06/03 07:43:28;;;;;;;;;;;22.00;66.80;;;19.24;64.02;100736.56;6123281;23;19999;-81
2022/06/03 07:45:58;;;;;;;;;;;22.00;67.40;;;19.27;64.67;100730.59;6122868;23;20003;-80
2022/06/03 07:48:28;;;;;;;;;;;22.10;68.00;;;19.27;63.56;100728.66;6121333;23;20027;-80
2022/06/03 07:50:57;;;;;;;;;;;22.00;67.70;;;19.27;64.04;100725.91;6122019;23;20027;-81
2022/06/03 07:53:32;;;;;;;;;;;22.00;68.10;;;19.26;65.25;100731.66;6121676;23;19920;-77
2022/06/03 07:55:59;;;;;;;;;;;22.00;68.60;;;19.24;63.93;100728.28;6121699;23;20007;-78
2022/06/03 07:58:32;;;;;;;;;;;22.10;68.60;;;19.20;63.27;100725.16;6121517;23;19921;-76
2022/06/03 08:00:59;;;;;;;;;;;22.00;68.30;;;19.18;64.91;100730.06;6123055;23;19975;-76
2022/06/03 08:03:34;;;;;;;;;;;22.00;68.80;;;19.20;64.96;100729.84;6123014;23;19952;-76
2022/06/03 08:06:05;;;;;;;;;;;22.00;69.10;;;19.21;64.13;100731.50;6122093;23;19999;-77
2022/06/03 08:11:26;;;;;;;;;;;22.00;69.00;;;19.17;61.76;100722.03;6122607;23;19920;-74
2022/06/03 08:13:56;;;;;;;;;;;22.00;67.80;;;19.16;64.20;100718.44;6122836;23;19972;-74
2022/06/03 08:16:32;;;;;;;;;;;21.90;69.10;;;19.17;64.03;100708.22;6122730;23;19921;-75
2022/06/03 08:19:02;;;;;;;;;;;21.90;69.80;;;19.12;62.88;100698.75;6121317;23;19979;-75
2022/06/03 08:21:35;;;;;;;;;;;21.80;68.60;;;19.12;64.11;100701.50;6122040;23;19952;-74
2022/06/03 08:24:04;;;;;;;;;;;21.80;69.50;;;19.13;63.97;100703.22;6121288;23;19928;-75
2022/06/03 08:26:32;;;;;;;;;;;21.80;69.70;;;19.14;64.01;100704.88;6121756;23;20403;-75
2022/06/03 08:29:13;;;;;;;;;;;21.80;69.90;;;19.15;63.95;100705.69;6142537;23;20343;-75
2022/06/03 08:31:41;;;;;;;;;;;21.80;70.30;;;19.16;63.36;100699.13;6152225;23;20298;-75
2022/06/03 08:34:11;;;;;;;;;;;21.80;70.20;;;19.18;64.47;100687.84;6151731;23;19946;-75
2022/06/03 08:36:41;;;;;;;;;;;21.80;70.30;;;19.20;66.00;100700.31;6151663;23;19924;-75
2022/06/03 08:39:14;;;;;;;;;;;21.80;70.90;;;19.22;64.92;100691.81;6148751;23;19993;-75
2022/06/03 08:42:06;;;;;;;;;;;21.80;70.80;;;19.20;61.36;100686.53;6151990;23;20081;-75
2022/06/03 08:44:46;;;;;;;;;;;21.90;68.80;;;19.21;62.57;100695.63;6129278;23;19920;-75
2022/06/03 08:47:18;;;;;;;;;;;21.80;69.70;;;19.22;63.35;100694.56;6152260;23;19920;-75
2022/06/03 08:50:02;;;;;;;;;;;21.80;70.20;;;19.25;63.04;100702.38;6149976;23;20019;-75
2022/06/03 08:52:41;;;;;;;;;;;21.80;70.10;;;19.27;63.05;100697.47;6151811;23;19921;-74
2022/06/03 08:55:22;;;;;;;;;;;21.80;70.10;;;19.27;62.51;100697.47;6151724;23;19925;-74
2022/06/03 08:57:49;;;;;;;;;;;21.80;70.00;;;19.24;62.42;100698.75;6150683;23;19954;-75
2022/06/03 09:00:22;;;;;;;;;;;21.70;69.60;;;19.28;63.58;100699.13;6149999;23;19944;-75
2022/06/03 09:02:56;;;;;;;;;;;21.70;70.40;;;19.25;61.94;100692.19;6151411;23;19924;-75
2022/06/03 09:05:30;;;;;;;;;;;21.70;69.80;;;19.24;61.48;100695.19;6150065;23;19999;-75
2022/06/03 09:08:02;;;;;;;;;;;21.70;69.80;;;19.23;61.28;100682.44;6150739;23;19944;-75
2022/06/03 09:10:34;;;;;;;;;;;21.60;69.60;;;19.25;63.03;100688.59;6150926;23;19920;-75
2022/06/03 09:13:05;;;;;;;;;;;21.60;70.40;;;19.28;61.81;100690.84;6151997;23;20394;-74
2022/06/03 09:15:39;;;;;;;;;;;21.60;70.10;;;19.24;58.49;100692.41;6151487;23;19916;-75
2022/06/03 09:18:10;;;;;;;;;;;21.50;68.50;;;19.27;59.77;100687.25;6151112;23;19920;-74
2022/06/03 09:20:42;;;;;;;;;;;21.50;69.40;;;19.30;61.89;100681.25;6151595;23;20004;-75
2022/06/03 09:23:12;;;;;;;;;;;21.60;70.10;;;19.34;61.62;100689.91;6151535;23;19925;-75
2022/06/03 09:25:43;;;;;;;;;;;21.70;70.30;;;19.37;61.88;100686.66;6150545;23;19925;-77
2022/06/03 09:28:15;;;;;;;;;;;21.70;70.10;;;19.39;61.56;100676.22;6148901;23;20003;-74
2022/06/03 09:30:46;;;;;;;;;;;21.80;70.00;;;19.41;59.22;100671.31;6150886;23;19925;-75
2022/06/03 09:33:16;;;;;;;;;;;21.80;67.50;;;19.43;60.02;100684.88;6151939;23;19967;-75
2022/06/03 09:35:45;;;;;;;;;;;21.80;69.00;;;19.46;60.40;100684.41;6153592;23;20011;-75
2022/06/03 09:38:14;;;;;;;;;;;21.80;69.10;;;19.48;60.64;100674.81;6151046;23;19916;-74
2022/06/03 09:40:48;;;;;;;;;;;21.80;69.20;;;19.50;60.88;100675.41;6153287;23;19948;-75
2022/06/03 09:43:18;;;;;;;;;;;21.90;69.40;;;19.54;62.32;100676.59;6151784;23;20315;-75
2022/06/03 09:45:47;;;;;;;;;;;21.90;69.70;;;19.55;60.61;100682.94;6152628;23;19921;-75
2022/06/03 09:48:16;;;;;;;;;;;22.00;69.10;;;19.57;60.20;100674.44;6152073;23;19991;-75
2022/06/03 09:50:46;;;;;;;;;;;22.00;68.70;;;19.59;58.01;100675.03;6152664;23;19917;-75
2022/06/03 09:53:13;;;;;;;;;;;22.00;67.60;;;19.58;57.57;100668.66;6153750;23;19916;-75
2022/06/03 09:55:43;;;;;;;;;;;22.00;66.70;;;19.60;57.64;100665.69;6153707;23;20369;-75
2022/06/03 09:58:15;;;;;;;;;;;22.00;66.80;;;19.61;57.36;100667.34;6150900;23;20649;-75
2022/06/03 10:00:46;;;;;;;;;;;22.00;66.40;;;19.65;57.97;100671.31;6152860;23;19932;-75
2022/06/03 10:03:15;;;;;;;;;;;22.00;66.90;;;19.67;56.27;100669.16;6152156;23;19932;-75
2022/06/03 10:05:45;;;;;;;;;;;22.00;65.80;;;19.66;55.85;100657.25;6152268;23;19928;-75
2022/06/03 10:08:13;;;;;;;;;;;22.00;65.40;;;19.68;57.56;100659.78;6151088;23;20263;-75
2022/06/03 10:13:28;;;;;;;;;;;22.00;66.20;;;19.70;54.83;100657.63;6153195;23;20367;-84
2022/06/03 10:15:58;;;;;;;;;;;22.00;63.80;;;19.71;57.18;100649.09;6152597;23;19927;-83
2022/06/03 10:18:30;;;;;;;;;;;22.00;65.80;;;19.72;57.48;100647.19;6151674;23;19921;-83
2022/06/03 10:20:58;;;;;;;;;;;22.10;66.00;;;19.72;56.30;100652.72;6152848;23;20007;-85
2022/06/03 10:23:29;;;;;;;;;;;22.10;65.00;;;19.72;56.29;100647.19;6152582;23;20030;-84
2022/06/03 10:25:59;;;;;;;;;;;22.10;64.80;;;19.74;57.08;100645.03;6126995;23;20023;-84
2022/06/03 10:28:31;;;;;;;;;;;22.20;65.30;;;19.77;57.00;100641.78;6151921;23;20343;-84
2022/06/03 10:31:00;;;;;;;;;;;22.20;65.30;;;19.78;56.77;100637.97;6153509;23;19916;-84
2022/06/03 10:33:29;;;;;;;;;;;22.20;65.20;;;19.81;55.90;100636.63;6153086;23;19920;-84
2022/06/03 10:35:57;;;;;;;;;;;22.30;65.00;;;19.85;55.48;100648.88;6153357;23;19920;-84
2022/06/03 10:38:27;;;;;;;;;;;22.30;64.70;;;19.89;55.66;100639.84;6125595;23;19920;-85
2022/06/03 10:40:54;;;;;;;;;;;22.20;64.40;;;19.91;54.83;100643.22;6126449;23;20335;-84
2022/06/03 10:43:23;;;;;;;;;;;22.20;64.00;;;19.96;56.65;100633.34;6152863;23;20023;-84
2022/06/03 10:45:50;;;;;;;;;;;22.30;64.90;;;19.99;55.08;100627.31;6152139;23;19926;-84
2022/06/03 10:48:23;;;;;;;;;;;22.30;64.50;;;20.01;55.29;100627.91;6151746;23;19955;-84
2022/06/03 10:50:52;;;;;;;;;;;22.40;64.30;;;20.02;53.15;100627.69;6126689;23;19924;-84
2022/06/03 11:01:48;;;;;;;;;;;22.50;64.00;;;20.14;54.68;100633.16;6153154;23;19924;-84
2022/06/03 11:04:30;;;;;;;;;;;22.50;63.40;;;20.18;55.22;100626.09;6153150;23;19920;-84
2022/06/03 11:07:00;;;;;;;;;;;22.60;63.50;;;20.20;55.00;100623.91;6153207;23;20008;-84
2022/06/03 11:09:27;;;;;;;;;;;22.60;63.00;;;20.22;54.12;100610.69;6151874;23;19920;-84
2022/06/03 11:12:00;;;;;;;;;;;22.60;62.70;;;20.23;55.95;100609.59;6152758;23;19947;-84
2022/06/03 11:14:38;;;;;;;;;;;22.70;63.60;;;20.27;53.97;100618.22;6152473;23;19927;-84
2022/06/03 11:17:16;;;;;;;;;;;22.70;62.40;;;20.31;55.06;100608.34;6152850;23;19920;-85
2022/06/03 11:19:47;;;;;;;;;;;22.70;63.30;;;20.34;53.44;100607.88;6150356;23;19999;-84
2022/06/03 11:22:23;;;;;;;;;;;22.70;62.70;;;20.35;54.33;100609.53;6152547;23;19928;-84
2022/06/03 11:24:53;;;;;;;;;;;22.70;62.60;;;20.36;53.98;100611.22;6152194;23;19920;-84
2022/06/03 11:27:24;;;;;;;;;;;22.80;62.50;;;20.39;53.97;100621.78;6152230;23;19956;-85
2022/06/03 11:29:52;;;;;;;;;;;22.80;62.20;;;20.41;54.07;100610.47;6151569;23;20004;-85
2022/06/03 11:32:19;;;;;;;;;;;22.80;62.50;;;20.43;54.77;100611.09;6152627;23;19999;-85
2022/06/03 11:34:51;;;;;;;;;;;22.80;62.80;;;20.44;54.61;100608.03;6125948;23;19920;-79
2022/06/03 11:37:25;;;;;;;;;;;22.80;62.60;;;20.46;51.30;100602.28;6148044;23;20007;-78
2022/06/03 11:39:56;;;;;;;;;;;22.80;60.20;;;20.49;51.42;100599.03;6151136;23;20343;-78
2022/06/03 11:42:30;;;;;;;;;;;22.80;60.70;;;20.56;53.21;100596.09;6150956;23;19927;-77
2022/06/03 11:45:04;;;;;;;;;;;22.80;61.80;;;20.59;53.55;100581.78;6151039;23;19968;-78
2022/06/03 11:47:34;;;;;;;;;;;22.90;62.00;;;20.60;54.34;100592.63;6152056;23;19951;-77
2022/06/03 11:50:01;;;;;;;;;;;22.90;61.90;;;20.61;52.98;100593.44;6150857;23;19959;-77
2022/06/03 11:52:29;;;;;;;;;;;23.00;61.70;;;20.62;51.98;100584.91;6152360;23;19927;-77
2022/06/03 11:54:57;;;;;;;;;;;23.00;60.80;;;20.67;52.78;100597.97;6151554;23;19958;-77
2022/06/03 11:57:24;;;;;;;;;;;23.00;61.40;;;20.69;53.35;100604.09;6151900;23;19921;-77
2022/06/03 11:59:55;;;;;;;;;;;23.00;61.70;;;20.70;53.45;100601.09;6124441;23;19920;-77
2022/06/03 12:02:27;;;;;;;;;;;23.00;61.40;;;20.75;53.40;100599.50;6152025;23;19947;-77
2022/06/03 12:04:59;;;;;;;;;;;23.00;61.50;;;20.74;52.04;100592.31;6151579;23;19948;-78
2022/06/03 12:07:37;;;;;;;;;;;23.00;60.70;;;20.74;52.65;100584.84;6151911;23;19944;-78
2022/06/03 12:10:11;;;;;;;;;;;23.00;61.00;;;20.77;52.15;100583.47;6151506;23;19944;-77
2022/06/03 12:15:48;;;;;;;;;;;23.00;61.50;;;20.80;51.70;100583.00;6125553;23;19916;-77
2022/06/03 12:18:44;;;;;;;;;;;23.10;60.50;;;20.81;52.26;100576.34;6151304;23;20015;-76
2022/06/03 12:21:14;;;;;;;;;;;23.10;60.30;;;20.80;53.64;100571.94;6151911;23;19924;-76
2022/06/03 12:23:54;;;;;;;;;;;23.10;61.50;;;20.80;52.66;100574.69;6151858;23;19924;-76
2022/06/03 12:26:27;;;;;;;;;;;23.10;61.50;;;20.80;53.89;100577.47;6151541;23;19925;-76
2022/06/03 12:29:14;;;;;;;;;;;23.20;61.90;;;20.79;53.16;100567.47;6150308;23;19917;-76
2022/06/03 12:31:44;;;;;;;;;;;23.20;61.70;;;20.80;53.79;100566.41;6125411;23;20006;-76
2022/06/03 12:34:21;;;;;;;;;;;23.20;61.90;;;20.81;54.84;100565.28;6152055;23;20340;-76
2022/06/03 12:37:00;;;;;;;;;;;23.20;62.00;;;20.80;54.12;100564.47;6151095;23;19976;-76
2022/06/03 12:39:38;;;;;;;;;;;23.30;62.10;;;20.81;52.91;100560.63;6151161;23;19964;-76
2022/06/03 12:42:06;;;;;;;;;;;23.20;60.90;;;;;;6151438;23;19980;-84
2022/06/03 12:44:55;;;;;;;;;;;23.10;61.30;;;20.86;53.60;100559.84;6151210;23;19920;-78